<?xml version="1.0" encoding="utf-8"?>
<gpx xmlns:xsi="http://www.w3.org/2001/XMLSchema-instance" xmlns:xsd="http://www.w3.org/2001/XMLSchema" version="1.1" creator="Shapelink.com" xmlns="http://www.topografix.com/GPX/1/1" xmlns:gpxtpx="http://www.garmin.com/xmlschemas/TrackPointExtension/v1">
  <metadata>
    <name>Övrigt 1.09 km, 2020-06-01</name>
    <desc></desc>
    <author><name>Marian Moron</name></author> 
    <time>2020-06-01T11:17:58Z</time>
  </metadata>
  <trk>
    <name>Övrigt 1.09 km, 2020-06-01</name>
    <trkseg>
      <trkpt lat="51.228875198061" lon="4.448626453619">
        <ele>0</ele>
        <time>2020-06-01T11:17:58Z</time>
      </trkpt>
      <trkpt lat="51.22883085781" lon="4.448735502138">
        <ele>0</ele>
        <time>2020-06-01T11:18:05Z</time>
      </trkpt>
      <trkpt lat="51.228529025591" lon="4.449253503558">
        <ele>0</ele>
        <time>2020-06-01T11:18:47Z</time>
      </trkpt>
      <trkpt lat="51.228470100834" lon="4.44931536198">
        <ele>0</ele>
        <time>2020-06-01T11:19:01Z</time>
      </trkpt>
      <trkpt lat="51.228442692021" lon="4.449314942885">
        <ele>0</ele>
        <time>2020-06-01T11:21:10Z</time>
      </trkpt>
      <trkpt lat="51.228664225638" lon="4.448943624715">
        <ele>0</ele>
        <time>2020-06-01T11:22:05Z</time>
      </trkpt>
      <trkpt lat="51.228851477284" lon="4.448656963735">
        <ele>0</ele>
        <time>2020-06-01T11:22:41Z</time>
      </trkpt>
      <trkpt lat="51.229029844116" lon="4.448554369279">
        <ele>0</ele>
        <time>2020-06-01T11:23:08Z</time>
      </trkpt>
      <trkpt lat="51.229102934284" lon="4.448607678163">
        <ele>0</ele>
        <time>2020-06-01T11:23:17Z</time>
      </trkpt>
      <trkpt lat="51.229349529782" lon="4.449178066458">
        <ele>0</ele>
        <time>2020-06-01T11:24:04Z</time>
      </trkpt>
      <trkpt lat="51.229468552762" lon="4.449867310095">
        <ele>0</ele>
        <time>2020-06-01T11:24:50Z</time>
      </trkpt>
      <trkpt lat="51.229608111397" lon="4.45055001585">
        <ele>0</ele>
        <time>2020-06-01T11:25:38Z</time>
      </trkpt>
      <trkpt lat="51.229715064441" lon="4.451236577279">
        <ele>0</ele>
        <time>2020-06-01T11:26:26Z</time>
      </trkpt>
      <trkpt lat="51.229847247004" lon="4.451923976898">
        <ele>0</ele>
        <time>2020-06-01T11:27:16Z</time>
      </trkpt>
      <trkpt lat="51.229944896139" lon="4.452630571068">
        <ele>0</ele>
        <time>2020-06-01T11:28:04Z</time>
      </trkpt>
      <trkpt lat="51.230067355698" lon="4.453318808877">
        <ele>0</ele>
        <time>2020-06-01T11:28:49Z</time>
      </trkpt>
      <trkpt lat="51.230134662355" lon="4.453585520935">
        <ele>0</ele>
        <time>2020-06-01T11:29:13Z</time>
      </trkpt>
      <trkpt lat="51.230249242928" lon="4.45428247592">
        <ele>0</ele>
        <time>2020-06-01T11:30:00Z</time>
      </trkpt>
      <trkpt lat="51.230249997299" lon="4.454368055119">
        <ele>0</ele>
        <time>2020-06-01T11:30:05Z</time>
      </trkpt>
      <trkpt lat="51.230203645392" lon="4.454574752773">
        <ele>0</ele>
        <time>2020-06-01T11:30:18Z</time>
      </trkpt>
      <trkpt lat="51.23019124018" lon="4.454702157653">
        <ele>1</ele>
        <time>2020-06-01T11:30:27Z</time>
      </trkpt>
      <trkpt lat="51.230161400616" lon="4.454895947181">
        <ele>0</ele>
        <time>2020-06-01T11:30:40Z</time>
      </trkpt>
      <trkpt lat="51.230058470884" lon="4.455193923726">
        <ele>2.2</ele>
        <time>2020-06-01T11:31:00Z</time>
      </trkpt>
      <trkpt lat="51.230333229566" lon="4.45542995803">
        <ele>7</ele>
        <time>2020-06-01T11:31:48Z</time>
      </trkpt>
      <trkpt lat="51.230742853019" lon="4.455746626212">
        <ele>1</ele>
        <time>2020-06-01T11:32:32Z</time>
      </trkpt>
      <trkpt lat="51.230991376354" lon="4.455996323013">
        <ele>0</ele>
        <time>2020-06-01T11:33:04Z</time>
      </trkpt>
      <trkpt lat="51.231069747119" lon="4.456157339312">
        <ele>0</ele>
        <time>2020-06-01T11:33:18Z</time>
      </trkpt>
      <trkpt lat="51.231207461736" lon="4.456289354237">
        <ele>0</ele>
        <time>2020-06-01T11:33:32Z</time>
      </trkpt>
      <trkpt lat="51.231223471165" lon="4.456485155421">
        <ele>0</ele>
        <time>2020-06-01T11:33:43Z</time>
      </trkpt>
      <trkpt lat="51.231233026531" lon="4.456709203608">
        <ele>0</ele>
        <time>2020-06-01T11:33:57Z</time>
      </trkpt>
      <trkpt lat="51.231253729824" lon="4.45692193623">
        <ele>0</ele>
        <time>2020-06-01T11:34:11Z</time>
      </trkpt>
      <trkpt lat="51.231261273534" lon="4.456949847957">
        <ele>0</ele>
        <time>2020-06-01T11:34:13Z</time>
      </trkpt>
      <trkpt lat="51.231251969625" lon="4.457010449094">
        <ele>0</ele>
        <time>2020-06-01T11:34:17Z</time>
      </trkpt>
      <trkpt lat="51.231106711298" lon="4.457672703013">
        <ele>0</ele>
        <time>2020-06-01T11:35:02Z</time>
      </trkpt>
      <trkpt lat="51.231056922812" lon="4.457678654162">
        <ele>0</ele>
        <time>2020-06-01T11:35:06Z</time>
      </trkpt>
      <trkpt lat="51.230971092156" lon="4.457690053546">
        <ele>0</ele>
        <time>2020-06-01T11:35:15Z</time>
      </trkpt>
      <trkpt lat="51.23071510893" lon="4.457704554233">
        <ele>0</ele>
        <time>2020-06-01T11:35:42Z</time>
      </trkpt>
      <trkpt lat="51.230258714475" lon="4.457785858663">
        <ele>0</ele>
        <time>2020-06-01T11:36:25Z</time>
      </trkpt>
      <trkpt lat="51.229822268942" lon="4.457939163614">
        <ele>1.8</ele>
        <time>2020-06-01T11:37:06Z</time>
      </trkpt>
      <trkpt lat="51.2296782679" lon="4.457996411991">
        <ele>3.4</ele>
        <time>2020-06-01T11:37:21Z</time>
      </trkpt>
    </trkseg>
  </trk>
</gpx>